sensor_id;sensor_type;location;lat;lon;timestamp;temperature;humidity
66337;SHT30;53139;45.576;5.304;2023-07-28T00:02:12;22.25;66.98
66337;SHT30;53139;45.576;5.304;2023-07-28T00:05:12;22.21;67.02
66337;SHT30;53139;45.576;5.304;2023-07-28T00:08:12;22.49;66.92
66337;SHT30;53139;45.576;5.304;2023-07-28T00:11:14;22.59;66.73
66337;SHT30;53139;45.576;5.304;2023-07-28T00:14:15;22.59;66.83
66337;SHT30;53139;45.576;5.304;2023-07-28T00:17:15;22.65;66.45
66337;SHT30;53139;45.576;5.304;2023-07-28T00:20:16;22.84;66.31
66337;SHT30;53139;45.576;5.304;2023-07-28T00:23:16;22.66;67.12
66337;SHT30;53139;45.576;5.304;2023-07-28T00:26:16;22.84;66.01
66337;SHT30;53139;45.576;5.304;2023-07-28T00:29:17;22.65;66.97
66337;SHT30;53139;45.576;5.304;2023-07-28T00:32:17;22.65;66.72
66337;SHT30;53139;45.576;5.304;2023-07-28T00:35:18;22.53;67.00
66337;SHT30;53139;45.576;5.304;2023-07-28T00:38:18;22.62;67.12
66337;SHT30;53139;45.576;5.304;2023-07-28T00:41:19;22.45;67.58
66337;SHT30;53139;45.576;5.304;2023-07-28T00:44:19;22.46;68.10
66337;SHT30;53139;45.576;5.304;2023-07-28T00:47:20;22.42;68.52
66337;SHT30;53139;45.576;5.304;2023-07-28T00:50:21;22.37;69.08
66337;SHT30;53139;45.576;5.304;2023-07-28T00:53:23;22.48;69.01
66337;SHT30;53139;45.576;5.304;2023-07-28T00:56:24;22.57;69.10
66337;SHT30;53139;45.576;5.304;2023-07-28T00:59:24;22.44;69.41
66337;SHT30;53139;45.576;5.304;2023-07-28T01:02:25;22.39;69.04
66337;SHT30;53139;45.576;5.304;2023-07-28T01:05:33;22.22;70.62
66337;SHT30;53139;45.576;5.304;2023-07-28T01:08:47;22.22;70.92
66337;SHT30;53139;45.576;5.304;2023-07-28T01:12:08;22.38;70.78
66337;SHT30;53139;45.576;5.304;2023-07-28T01:15:14;22.44;70.09
66337;SHT30;53139;45.576;5.304;2023-07-28T01:18:15;22.39;70.65
66337;SHT30;53139;45.576;5.304;2023-07-28T01:21:27;22.41;70.92
66337;SHT30;53139;45.576;5.304;2023-07-28T01:24:42;22.65;70.01
66337;SHT30;53139;45.576;5.304;2023-07-28T01:27:49;22.45;71.44
66337;SHT30;53139;45.576;5.304;2023-07-28T01:30:50;22.37;71.30
66337;SHT30;53139;45.576;5.304;2023-07-28T01:33:50;22.42;71.92
66337;SHT30;53139;45.576;5.304;2023-07-28T01:36:51;22.20;73.13
66337;SHT30;53139;45.576;5.304;2023-07-28T01:39:51;22.22;73.14
66337;SHT30;53139;45.576;5.304;2023-07-28T01:42:51;22.15;72.55
66337;SHT30;53139;45.576;5.304;2023-07-28T01:45:52;22.01;73.67
66337;SHT30;53139;45.576;5.304;2023-07-28T01:48:52;22.00;74.58
66337;SHT30;53139;45.576;5.304;2023-07-28T01:51:52;22.02;73.53
66337;SHT30;53139;45.576;5.304;2023-07-28T01:54:53;22.15;74.20
66337;SHT30;53139;45.576;5.304;2023-07-28T01:58:00;21.90;74.99
66337;SHT30;53139;45.576;5.304;2023-07-28T02:01:01;21.82;75.56
66337;SHT30;53139;45.576;5.304;2023-07-28T02:04:02;21.82;75.47
66337;SHT30;53139;45.576;5.304;2023-07-28T02:07:02;21.72;76.18
66337;SHT30;53139;45.576;5.304;2023-07-28T02:10:03;21.80;75.82
66337;SHT30;53139;45.576;5.304;2023-07-28T02:13:04;21.49;76.76
66337;SHT30;53139;45.576;5.304;2023-07-28T02:16:04;21.80;77.10
66337;SHT30;53139;45.576;5.304;2023-07-28T02:19:05;21.84;77.24
66337;SHT30;53139;45.576;5.304;2023-07-28T02:22:05;22.04;75.90
66337;SHT30;53139;45.576;5.304;2023-07-28T02:25:06;22.02;76.82
66337;SHT30;53139;45.576;5.304;2023-07-28T02:28:09;22.27;76.29
66337;SHT30;53139;45.576;5.304;2023-07-28T02:31:10;22.11;77.81
66337;SHT30;53139;45.576;5.304;2023-07-28T02:34:10;22.10;78.02
66337;SHT30;53139;45.576;5.304;2023-07-28T02:37:10;22.05;78.38
66337;SHT30;53139;45.576;5.304;2023-07-28T02:40:11;22.18;77.48
66337;SHT30;53139;45.576;5.304;2023-07-28T02:43:13;22.17;79.03
66337;SHT30;53139;45.576;5.304;2023-07-28T02:46:13;22.04;79.53
66337;SHT30;53139;45.576;5.304;2023-07-28T02:49:13;21.97;80.22
66337;SHT30;53139;45.576;5.304;2023-07-28T02:52:14;22.24;79.70
66337;SHT30;53139;45.576;5.304;2023-07-28T02:55:14;22.18;80.03
66337;SHT30;53139;45.576;5.304;2023-07-28T02:58:15;22.32;78.77
66337;SHT30;53139;45.576;5.304;2023-07-28T03:01:15;22.25;80.31
66337;SHT30;53139;45.576;5.304;2023-07-28T03:04:18;22.35;79.75
66337;SHT30;53139;45.576;5.304;2023-07-28T03:07:20;22.24;79.52
66337;SHT30;53139;45.576;5.304;2023-07-28T03:10:20;22.38;79.87
66337;SHT30;53139;45.576;5.304;2023-07-28T03:13:21;22.38;79.65
66337;SHT30;53139;45.576;5.304;2023-07-28T03:16:21;22.31;80.48
66337;SHT30;53139;45.576;5.304;2023-07-28T03:19:21;22.52;79.40
66337;SHT30;53139;45.576;5.304;2023-07-28T03:22:22;22.31;80.61
66337;SHT30;53139;45.576;5.304;2023-07-28T03:25:22;22.53;78.72
66337;SHT30;53139;45.576;5.304;2023-07-28T03:28:22;22.37;80.34
66337;SHT30;53139;45.576;5.304;2023-07-28T03:31:23;22.48;79.56
66337;SHT30;53139;45.576;5.304;2023-07-28T03:34:23;22.41;80.13
66337;SHT30;53139;45.576;5.304;2023-07-28T03:37:24;22.15;81.42
66337;SHT30;53139;45.576;5.304;2023-07-28T03:40:24;22.08;81.10
66337;SHT30;53139;45.576;5.304;2023-07-28T03:43:24;22.21;80.83
66337;SHT30;53139;45.576;5.304;2023-07-28T03:46:25;21.97;81.77
66337;SHT30;53139;45.576;5.304;2023-07-28T03:49:25;22.10;80.83
66337;SHT30;53139;45.576;5.304;2023-07-28T03:52:26;22.27;80.79
66337;SHT30;53139;45.576;5.304;2023-07-28T03:55:26;22.20;80.97
66337;SHT30;53139;45.576;5.304;2023-07-28T03:58:26;21.96;81.95
66337;SHT30;53139;45.576;5.304;2023-07-28T04:01:27;21.93;82.07
66337;SHT30;53139;45.576;5.304;2023-07-28T04:04:27;22.07;81.38
66337;SHT30;53139;45.576;5.304;2023-07-28T04:07:28;22.01;82.03
66337;SHT30;53139;45.576;5.304;2023-07-28T04:10:28;22.20;80.94
66337;SHT30;53139;45.576;5.304;2023-07-28T04:13:28;22.20;81.03
66337;SHT30;53139;45.576;5.304;2023-07-28T04:16:29;22.14;81.02
66337;SHT30;53139;45.576;5.304;2023-07-28T04:19:29;22.25;80.44
66337;SHT30;53139;45.576;5.304;2023-07-28T04:22:30;22.24;81.04
66337;SHT30;53139;45.576;5.304;2023-07-28T04:25:30;22.24;81.00
66337;SHT30;53139;45.576;5.304;2023-07-28T04:28:31;22.17;80.78
66337;SHT30;53139;45.576;5.304;2023-07-28T04:31:31;22.27;80.14
66337;SHT30;53139;45.576;5.304;2023-07-28T04:34:35;22.14;80.74
66337;SHT30;53139;45.576;5.304;2023-07-28T04:37:35;22.00;81.00
66337;SHT30;53139;45.576;5.304;2023-07-28T04:40:36;22.05;81.01
66337;SHT30;53139;45.576;5.304;2023-07-28T04:43:36;22.11;81.47
66337;SHT30;53139;45.576;5.304;2023-07-28T04:46:36;22.00;81.74
66337;SHT30;53139;45.576;5.304;2023-07-28T04:49:37;21.97;81.18
66337;SHT30;53139;45.576;5.304;2023-07-28T04:52:37;21.93;80.41
66337;SHT30;53139;45.576;5.304;2023-07-28T04:55:38;21.90;81.71
66337;SHT30;53139;45.576;5.304;2023-07-28T04:58:38;21.87;81.44
66337;SHT30;53139;45.576;5.304;2023-07-28T05:01:38;21.83;82.29
66337;SHT30;53139;45.576;5.304;2023-07-28T05:04:39;21.67;82.39
66337;SHT30;53139;45.576;5.304;2023-07-28T05:07:39;21.83;82.83
66337;SHT30;53139;45.576;5.304;2023-07-28T05:10:41;21.82;82.71
66337;SHT30;53139;45.576;5.304;2023-07-28T05:13:43;21.93;82.66
66337;SHT30;53139;45.576;5.304;2023-07-28T05:16:44;22.00;81.21
66337;SHT30;53139;45.576;5.304;2023-07-28T05:19:44;22.04;81.55
66337;SHT30;53139;45.576;5.304;2023-07-28T05:22:45;22.10;81.16
66337;SHT30;53139;45.576;5.304;2023-07-28T05:25:45;22.08;82.23
66337;SHT30;53139;45.576;5.304;2023-07-28T05:28:45;21.97;81.95
66337;SHT30;53139;45.576;5.304;2023-07-28T05:31:46;21.83;82.80
66337;SHT30;53139;45.576;5.304;2023-07-28T05:34:46;21.89;81.90
66337;SHT30;53139;45.576;5.304;2023-07-28T05:37:46;21.94;82.73
66337;SHT30;53139;45.576;5.304;2023-07-28T05:40:56;21.98;82.26
66337;SHT30;53139;45.576;5.304;2023-07-28T05:43:57;22.05;80.21
66337;SHT30;53139;45.576;5.304;2023-07-28T05:46:57;21.84;82.12
66337;SHT30;53139;45.576;5.304;2023-07-28T05:49:58;21.86;81.31
66337;SHT30;53139;45.576;5.304;2023-07-28T05:52:59;21.93;82.18
66337;SHT30;53139;45.576;5.304;2023-07-28T05:56:00;21.90;81.56
66337;SHT30;53139;45.576;5.304;2023-07-28T05:59:00;22.07;81.04
66337;SHT30;53139;45.576;5.304;2023-07-28T06:02:01;22.17;80.46
66337;SHT30;53139;45.576;5.304;2023-07-28T06:05:01;22.37;79.58
66337;SHT30;53139;45.576;5.304;2023-07-28T06:08:01;22.28;81.25
66337;SHT30;53139;45.576;5.304;2023-07-28T06:11:05;22.51;79.32
66337;SHT30;53139;45.576;5.304;2023-07-28T06:14:06;22.59;79.33
66337;SHT30;53139;45.576;5.304;2023-07-28T06:17:06;22.80;79.14
66337;SHT30;53139;45.576;5.304;2023-07-28T06:20:07;22.86;77.54
66337;SHT30;53139;45.576;5.304;2023-07-28T06:23:08;23.20;76.68
66337;SHT30;53139;45.576;5.304;2023-07-28T06:26:08;23.32;75.69
66337;SHT30;53139;45.576;5.304;2023-07-28T06:29:09;23.34;75.63
66337;SHT30;53139;45.576;5.304;2023-07-28T06:32:10;23.27;76.32
66337;SHT30;53139;45.576;5.304;2023-07-28T06:35:12;23.24;75.93
66337;SHT30;53139;45.576;5.304;2023-07-28T06:38:13;23.34;75.39
66337;SHT30;53139;45.576;5.304;2023-07-28T06:41:13;23.41;75.24
66337;SHT30;53139;45.576;5.304;2023-07-28T06:44:14;23.41;75.28
66337;SHT30;53139;45.576;5.304;2023-07-28T06:47:15;23.46;74.71
66337;SHT30;53139;45.576;5.304;2023-07-28T06:50:15;23.52;75.01
66337;SHT30;53139;45.576;5.304;2023-07-28T06:53:15;23.54;74.92
66337;SHT30;53139;45.576;5.304;2023-07-28T06:56:16;23.59;74.88
66337;SHT30;53139;45.576;5.304;2023-07-28T06:59:16;23.76;75.16
66337;SHT30;53139;45.576;5.304;2023-07-28T07:02:17;23.75;75.16
66337;SHT30;53139;45.576;5.304;2023-07-28T07:05:17;23.84;74.62
66337;SHT30;53139;45.576;5.304;2023-07-28T07:08:18;24.09;73.62
66337;SHT30;53139;45.576;5.304;2023-07-28T07:11:19;23.84;74.45
66337;SHT30;53139;45.576;5.304;2023-07-28T07:14:19;24.01;73.83
66337;SHT30;53139;45.576;5.304;2023-07-28T07:17:19;24.16;73.93
66337;SHT30;53139;45.576;5.304;2023-07-28T07:20:20;24.16;73.23
66337;SHT30;53139;45.576;5.304;2023-07-28T07:23:20;24.10;73.29
66337;SHT30;53139;45.576;5.304;2023-07-28T07:26:20;24.29;72.96
66337;SHT30;53139;45.576;5.304;2023-07-28T07:29:21;24.51;72.32
66337;SHT30;53139;45.576;5.304;2023-07-28T07:32:21;24.73;71.89
66337;SHT30;53139;45.576;5.304;2023-07-28T07:35:22;24.73;71.75
66337;SHT30;53139;45.576;5.304;2023-07-28T07:38:22;24.82;71.14
66337;SHT30;53139;45.576;5.304;2023-07-28T07:41:23;24.80;70.74
66337;SHT30;53139;45.576;5.304;2023-07-28T07:44:24;24.72;70.54
66337;SHT30;53139;45.576;5.304;2023-07-28T07:47:24;24.97;70.02
66337;SHT30;53139;45.576;5.304;2023-07-28T07:50:25;25.14;69.98
66337;SHT30;53139;45.576;5.304;2023-07-28T07:53:25;25.27;70.15
66337;SHT30;53139;45.576;5.304;2023-07-28T07:56:25;25.21;69.74
66337;SHT30;53139;45.576;5.304;2023-07-28T07:59:26;25.33;69.64
66337;SHT30;53139;45.576;5.304;2023-07-28T08:02:28;25.64;68.98
66337;SHT30;53139;45.576;5.304;2023-07-28T08:05:28;25.62;68.15
66337;SHT30;53139;45.576;5.304;2023-07-28T08:08:29;25.88;66.87
66337;SHT30;53139;45.576;5.304;2023-07-28T08:11:30;26.14;66.04
66337;SHT30;53139;45.576;5.304;2023-07-28T08:14:30;26.45;65.39
66337;SHT30;53139;45.576;5.304;2023-07-28T08:17:30;26.99;64.63
66337;SHT30;53139;45.576;5.304;2023-07-28T08:20:31;27.69;63.29
66337;SHT30;53139;45.576;5.304;2023-07-28T08:23:31;27.31;62.16
66337;SHT30;53139;45.576;5.304;2023-07-28T08:26:32;28.05;62.29
66337;SHT30;53139;45.576;5.304;2023-07-28T08:29:32;27.57;63.62
66337;SHT30;53139;45.576;5.304;2023-07-28T08:32:32;28.50;60.33
66337;SHT30;53139;45.576;5.304;2023-07-28T08:35:33;28.61;59.63
66337;SHT30;53139;45.576;5.304;2023-07-28T08:38:34;29.12;57.95
66337;SHT30;53139;45.576;5.304;2023-07-28T08:41:34;29.16;58.61
66337;SHT30;53139;45.576;5.304;2023-07-28T08:44:35;28.57;58.83
66337;SHT30;53139;45.576;5.304;2023-07-28T08:47:36;28.12;60.44
66337;SHT30;53139;45.576;5.304;2023-07-28T08:50:37;28.75;58.61
66337;SHT30;53139;45.576;5.304;2023-07-28T08:53:37;29.70;58.66
66337;SHT30;53139;45.576;5.304;2023-07-28T08:56:38;31.42;53.05
66337;SHT30;53139;45.576;5.304;2023-07-28T08:59:38;34.92;47.30
66337;SHT30;53139;45.576;5.304;2023-07-28T09:02:42;34.35;46.69
66337;SHT30;53139;45.576;5.304;2023-07-28T09:05:43;35.29;45.49
66337;SHT30;53139;45.576;5.304;2023-07-28T09:08:44;34.88;45.36
66337;SHT30;53139;45.576;5.304;2023-07-28T09:11:49;36.02;44.02
66337;SHT30;53139;45.576;5.304;2023-07-28T09:14:55;33.35;47.35
66337;SHT30;53139;45.576;5.304;2023-07-28T09:17:56;32.49;50.47
66337;SHT30;53139;45.576;5.304;2023-07-28T09:20:56;33.24;47.44
66337;SHT30;53139;45.576;5.304;2023-07-28T09:24:00;35.17;43.60
66337;SHT30;53139;45.576;5.304;2023-07-28T09:27:02;36.06;42.72
66337;SHT30;53139;45.576;5.304;2023-07-28T09:30:02;36.00;42.98
66337;SHT30;53139;45.576;5.304;2023-07-28T09:33:03;37.09;42.21
66337;SHT30;53139;45.576;5.304;2023-07-28T09:36:09;36.34;40.57
66337;SHT30;53139;45.576;5.304;2023-07-28T09:39:10;38.53;38.55
66337;SHT30;53139;45.576;5.304;2023-07-28T09:42:11;36.33;42.85
66337;SHT30;53139;45.576;5.304;2023-07-28T09:45:11;33.96;44.35
66337;SHT30;53139;45.576;5.304;2023-07-28T09:48:13;32.28;49.37
66337;SHT30;53139;45.576;5.304;2023-07-28T09:51:18;36.71;42.25
66337;SHT30;53139;45.576;5.304;2023-07-28T09:54:25;36.63;40.33
66337;SHT30;53139;45.576;5.304;2023-07-28T09:57:34;34.35;43.12
66337;SHT30;53139;45.576;5.304;2023-07-28T10:00:35;37.25;40.72
66337;SHT30;53139;45.576;5.304;2023-07-28T10:03:36;34.65;42.28
66337;SHT30;53139;45.576;5.304;2023-07-28T10:06:37;33.53;45.13
66337;SHT30;53139;45.576;5.304;2023-07-28T10:09:38;32.79;46.53
66337;SHT30;53139;45.576;5.304;2023-07-28T10:12:45;32.88;46.19
66337;SHT30;53139;45.576;5.304;2023-07-28T10:15:46;33.76;44.32
66337;SHT30;53139;45.576;5.304;2023-07-28T10:18:53;33.17;44.64
66337;SHT30;53139;45.576;5.304;2023-07-28T10:22:02;32.60;45.59
66337;SHT30;53139;45.576;5.304;2023-07-28T10:25:03;36.41;38.63
66337;SHT30;53139;45.576;5.304;2023-07-28T10:28:51;40.56;34.26
66337;SHT30;53139;45.576;5.304;2023-07-28T10:31:30;41.97;33.90
66337;SHT30;53139;45.576;5.304;2023-07-28T10:34:30;40.63;34.05
66337;SHT30;53139;45.576;5.304;2023-07-28T10:37:31;38.05;37.44
66337;SHT30;53139;45.576;5.304;2023-07-28T10:40:35;35.77;40.46
66337;SHT30;53139;45.576;5.304;2023-07-28T10:43:36;34.89;40.02
66337;SHT30;53139;45.576;5.304;2023-07-28T10:46:37;35.14;42.90
66337;SHT30;53139;45.576;5.304;2023-07-28T10:49:38;34.58;43.04
66337;SHT30;53139;45.576;5.304;2023-07-28T10:52:47;35.57;39.30
66337;SHT30;53139;45.576;5.304;2023-07-28T10:55:48;41.19;31.91
66337;SHT30;53139;45.576;5.304;2023-07-28T10:58:59;42.26;31.14
66337;SHT30;53139;45.576;5.304;2023-07-28T11:01:59;39.00;35.08
66337;SHT30;53139;45.576;5.304;2023-07-28T11:05:05;34.51;39.03
66337;SHT30;53139;45.576;5.304;2023-07-28T11:08:06;35.69;38.87
66337;SHT30;53139;45.576;5.304;2023-07-28T11:11:09;34.23;40.54
66337;SHT30;53139;45.576;5.304;2023-07-28T11:14:11;38.28;36.34
66337;SHT30;53139;45.576;5.304;2023-07-28T11:17:12;38.68;33.80
66337;SHT30;53139;45.576;5.304;2023-07-28T11:23:17;43.48;30.32
66337;SHT30;53139;45.576;5.304;2023-07-28T11:26:17;40.69;32.79
66337;SHT30;53139;45.576;5.304;2023-07-28T11:29:18;43.65;28.68
66337;SHT30;53139;45.576;5.304;2023-07-28T11:32:20;43.61;29.18
66337;SHT30;53139;45.576;5.304;2023-07-28T11:35:22;42.92;31.55
66337;SHT30;53139;45.576;5.304;2023-07-28T11:38:22;47.38;27.59
66337;SHT30;53139;45.576;5.304;2023-07-28T11:41:23;44.90;27.55
66337;SHT30;53139;45.576;5.304;2023-07-28T11:44:24;37.03;34.04
66337;SHT30;53139;45.576;5.304;2023-07-28T11:47:25;41.20;32.02
66337;SHT30;53139;45.576;5.304;2023-07-28T11:50:34;36.33;35.93
66337;SHT30;53139;45.576;5.304;2023-07-28T11:53:34;41.96;29.88
66337;SHT30;53139;45.576;5.304;2023-07-28T11:56:35;37.89;34.93
66337;SHT30;53139;45.576;5.304;2023-07-28T11:59:35;44.71;28.30
66337;SHT30;53139;45.576;5.304;2023-07-28T12:02:36;42.79;28.82
66337;SHT30;53139;45.576;5.304;2023-07-28T12:05:38;43.71;26.92
66337;SHT30;53139;45.576;5.304;2023-07-28T12:08:39;44.62;27.05
66337;SHT30;53139;45.576;5.304;2023-07-28T12:11:43;47.31;27.90
66337;SHT30;53139;45.576;5.304;2023-07-28T12:14:44;47.18;27.38
66337;SHT30;53139;45.576;5.304;2023-07-28T12:18:19;44.09;27.51
66337;SHT30;53139;45.576;5.304;2023-07-28T12:21:20;47.13;24.81
66337;SHT30;53139;45.576;5.304;2023-07-28T12:24:20;47.71;25.15
66337;SHT30;53139;45.576;5.304;2023-07-28T12:27:21;45.69;24.46
66337;SHT30;53139;45.576;5.304;2023-07-28T12:30:24;43.96;26.77
66337;SHT30;53139;45.576;5.304;2023-07-28T12:33:27;40.69;29.55
66337;SHT30;53139;45.576;5.304;2023-07-28T12:36:28;46.89;25.23
66337;SHT30;53139;45.576;5.304;2023-07-28T12:39:28;43.10;30.02
66337;SHT30;53139;45.576;5.304;2023-07-28T12:42:29;40.03;29.41
66337;SHT30;53139;45.576;5.304;2023-07-28T12:45:30;44.43;26.73
66337;SHT30;53139;45.576;5.304;2023-07-28T12:48:31;46.45;27.20
66337;SHT30;53139;45.576;5.304;2023-07-28T12:51:31;45.50;25.73
66337;SHT30;53139;45.576;5.304;2023-07-28T12:54:32;44.63;23.96
66337;SHT30;53139;45.576;5.304;2023-07-28T12:57:32;37.91;31.54
66337;SHT30;53139;45.576;5.304;2023-07-28T13:00:33;38.01;32.72
66337;SHT30;53139;45.576;5.304;2023-07-28T13:03:33;38.93;29.77
66337;SHT30;53139;45.576;5.304;2023-07-28T13:06:34;38.14;31.07
66337;SHT30;53139;45.576;5.304;2023-07-28T13:09:36;37.12;33.93
66337;SHT30;53139;45.576;5.304;2023-07-28T13:12:39;36.26;34.30
66337;SHT30;53139;45.576;5.304;2023-07-28T13:15:40;38.81;30.99
66337;SHT30;53139;45.576;5.304;2023-07-28T13:18:42;41.30;31.23
66337;SHT30;53139;45.576;5.304;2023-07-28T13:21:43;42.40;27.77
66337;SHT30;53139;45.576;5.304;2023-07-28T13:24:44;43.12;26.46
66337;SHT30;53139;45.576;5.304;2023-07-28T13:27:44;44.63;25.38
66337;SHT30;53139;45.576;5.304;2023-07-28T13:30:44;44.78;26.04
66337;SHT30;53139;45.576;5.304;2023-07-28T13:33:45;42.13;27.56
66337;SHT30;53139;45.576;5.304;2023-07-28T13:36:45;38.81;31.10
66337;SHT30;53139;45.576;5.304;2023-07-28T13:39:46;41.09;28.42
66337;SHT30;53139;45.576;5.304;2023-07-28T13:42:46;41.26;28.09
66337;SHT30;53139;45.576;5.304;2023-07-28T13:45:47;39.01;30.93
66337;SHT30;53139;45.576;5.304;2023-07-28T13:48:47;36.00;35.52
66337;SHT30;53139;45.576;5.304;2023-07-28T13:51:51;35.75;34.94
66337;SHT30;53139;45.576;5.304;2023-07-28T13:54:51;35.31;35.47
66337;SHT30;53139;45.576;5.304;2023-07-28T13:57:52;34.85;35.72
66337;SHT30;53139;45.576;5.304;2023-07-28T14:00:52;34.52;37.03
66337;SHT30;53139;45.576;5.304;2023-07-28T14:03:53;34.16;38.07
66337;SHT30;53139;45.576;5.304;2023-07-28T14:06:53;33.96;38.04
66337;SHT30;53139;45.576;5.304;2023-07-28T14:09:54;34.00;37.41
66337;SHT30;53139;45.576;5.304;2023-07-28T14:12:54;39.21;31.86
66337;SHT30;53139;45.576;5.304;2023-07-28T14:15:55;40.75;30.75
66337;SHT30;53139;45.576;5.304;2023-07-28T14:18:55;39.41;31.78
66337;SHT30;53139;45.576;5.304;2023-07-28T14:21:55;36.51;36.84
66337;SHT30;53139;45.576;5.304;2023-07-28T14:24:56;35.17;36.48
66337;SHT30;53139;45.576;5.304;2023-07-28T14:27:56;34.63;36.33
66337;SHT30;53139;45.576;5.304;2023-07-28T14:30:57;34.58;36.94
66337;SHT30;53139;45.576;5.304;2023-07-28T14:33:57;35.14;36.88
66337;SHT30;53139;45.576;5.304;2023-07-28T14:36:57;37.77;33.74
66337;SHT30;53139;45.576;5.304;2023-07-28T14:39:58;37.34;34.63
66337;SHT30;53139;45.576;5.304;2023-07-28T14:42:58;36.45;36.92
66337;SHT30;53139;45.576;5.304;2023-07-28T14:45:59;36.05;37.18
66337;SHT30;53139;45.576;5.304;2023-07-28T14:48:59;37.36;36.80
66337;SHT30;53139;45.576;5.304;2023-07-28T14:52:00;36.16;36.29
66337;SHT30;53139;45.576;5.304;2023-07-28T14:55:00;35.59;37.75
66337;SHT30;53139;45.576;5.304;2023-07-28T14:58:00;35.75;37.01
66337;SHT30;53139;45.576;5.304;2023-07-28T15:01:01;37.15;36.27
66337;SHT30;53139;45.576;5.304;2023-07-28T15:04:04;36.19;35.66
66337;SHT30;53139;45.576;5.304;2023-07-28T15:07:05;38.06;33.98
66337;SHT30;53139;45.576;5.304;2023-07-28T15:10:06;39.29;32.70
66337;SHT30;53139;45.576;5.304;2023-07-28T15:13:06;39.14;31.81
66337;SHT30;53139;45.576;5.304;2023-07-28T15:16:07;40.56;30.75
66337;SHT30;53139;45.576;5.304;2023-07-28T15:19:07;40.05;30.36
66337;SHT30;53139;45.576;5.304;2023-07-28T15:22:08;38.06;33.05
66337;SHT30;53139;45.576;5.304;2023-07-28T15:25:08;37.74;33.37
66337;SHT30;53139;45.576;5.304;2023-07-28T15:28:12;41.92;28.63
66337;SHT30;53139;45.576;5.304;2023-07-28T15:31:13;39.35;31.79
66337;SHT30;53139;45.576;5.304;2023-07-28T15:34:14;40.17;30.91
66337;SHT30;53139;45.576;5.304;2023-07-28T15:37:14;39.67;30.62
66337;SHT30;53139;45.576;5.304;2023-07-28T15:40:14;40.67;30.14
66337;SHT30;53139;45.576;5.304;2023-07-28T15:43:15;41.13;29.68
66337;SHT30;53139;45.576;5.304;2023-07-28T15:46:15;39.78;30.63
66337;SHT30;53139;45.576;5.304;2023-07-28T15:49:16;38.74;31.28
66337;SHT30;53139;45.576;5.304;2023-07-28T15:52:16;38.09;32.40
66337;SHT30;53139;45.576;5.304;2023-07-28T15:55:18;40.04;30.14
66337;SHT30;53139;45.576;5.304;2023-07-28T15:58:18;40.32;30.18
66337;SHT30;53139;45.576;5.304;2023-07-28T16:01:19;39.39;31.24
66337;SHT30;53139;45.576;5.304;2023-07-28T16:04:19;40.54;30.11
66337;SHT30;53139;45.576;5.304;2023-07-28T16:07:20;39.60;31.55
66337;SHT30;53139;45.576;5.304;2023-07-28T16:10:22;38.63;31.56
66337;SHT30;53139;45.576;5.304;2023-07-28T16:13:23;37.81;33.20
66337;SHT30;53139;45.576;5.304;2023-07-28T16:16:23;36.41;34.14
66337;SHT30;53139;45.576;5.304;2023-07-28T16:19:24;35.33;36.88
66337;SHT30;53139;45.576;5.304;2023-07-28T16:22:25;33.25;40.11
66337;SHT30;53139;45.576;5.304;2023-07-28T16:25:25;33.49;39.67
66337;SHT30;53139;45.576;5.304;2023-07-28T16:28:26;33.86;38.95
66337;SHT30;53139;45.576;5.304;2023-07-28T16:31:26;32.92;38.27
66337;SHT30;53139;45.576;5.304;2023-07-28T16:34:26;33.08;38.96
66337;SHT30;53139;45.576;5.304;2023-07-28T16:37:29;33.24;39.50
66337;SHT30;53139;45.576;5.304;2023-07-28T16:40:29;33.06;38.22
66337;SHT30;53139;45.576;5.304;2023-07-28T16:43:30;33.38;38.94
66337;SHT30;53139;45.576;5.304;2023-07-28T16:46:31;35.93;36.20
66337;SHT30;53139;45.576;5.304;2023-07-28T16:49:31;34.16;37.43
66337;SHT30;53139;45.576;5.304;2023-07-28T16:52:32;33.08;39.54
66337;SHT30;53139;45.576;5.304;2023-07-28T16:55:32;32.81;40.56
66337;SHT30;53139;45.576;5.304;2023-07-28T16:58:32;33.34;40.81
66337;SHT30;53139;45.576;5.304;2023-07-28T17:01:33;33.11;41.11
66337;SHT30;53139;45.576;5.304;2023-07-28T17:04:33;33.34;41.44
66337;SHT30;53139;45.576;5.304;2023-07-28T17:07:34;32.66;42.33
66337;SHT30;53139;45.576;5.304;2023-07-28T17:10:34;32.59;42.53
66337;SHT30;53139;45.576;5.304;2023-07-28T17:13:34;31.64;44.11
66337;SHT30;53139;45.576;5.304;2023-07-28T17:16:35;33.70;41.62
66337;SHT30;53139;45.576;5.304;2023-07-28T17:22:45;36.70;36.56
66337;SHT30;53139;45.576;5.304;2023-07-28T17:25:46;36.91;36.93
66337;SHT30;53139;45.576;5.304;2023-07-28T17:28:50;33.83;39.79
66337;SHT30;53139;45.576;5.304;2023-07-28T17:31:51;32.38;42.66
66337;SHT30;53139;45.576;5.304;2023-07-28T17:34:52;32.57;42.81
66337;SHT30;53139;45.576;5.304;2023-07-28T17:37:55;31.90;43.89
66337;SHT30;53139;45.576;5.304;2023-07-28T17:40:56;32.91;42.84
66337;SHT30;53139;45.576;5.304;2023-07-28T17:43:56;33.51;42.15
66337;SHT30;53139;45.576;5.304;2023-07-28T17:46:57;32.27;44.29
66337;SHT30;53139;45.576;5.304;2023-07-28T17:50:01;33.32;42.61
66337;SHT30;53139;45.576;5.304;2023-07-28T17:53:04;33.74;42.51
66337;SHT30;53139;45.576;5.304;2023-07-28T17:56:05;32.57;44.31
66337;SHT30;53139;45.576;5.304;2023-07-28T17:59:05;30.22;48.73
66337;SHT30;53139;45.576;5.304;2023-07-28T18:02:06;30.18;50.25
66337;SHT30;53139;45.576;5.304;2023-07-28T18:05:06;29.92;49.83
66337;SHT30;53139;45.576;5.304;2023-07-28T18:08:10;29.70;50.38
66337;SHT30;53139;45.576;5.304;2023-07-28T18:11:13;29.42;50.84
66337;SHT30;53139;45.576;5.304;2023-07-28T18:14:14;29.16;51.34
66337;SHT30;53139;45.576;5.304;2023-07-28T18:17:14;29.05;51.49
66337;SHT30;53139;45.576;5.304;2023-07-28T18:20:17;28.67;52.06
66337;SHT30;53139;45.576;5.304;2023-07-28T18:23:18;28.67;52.13
66337;SHT30;53139;45.576;5.304;2023-07-28T18:26:33;28.68;52.03
66337;SHT30;53139;45.576;5.304;2023-07-28T18:29:46;28.39;52.90
66337;SHT30;53139;45.576;5.304;2023-07-28T18:32:49;28.21;53.50
66337;SHT30;53139;45.576;5.304;2023-07-28T18:35:50;27.91;54.11
66337;SHT30;53139;45.576;5.304;2023-07-28T18:39:10;28.05;53.87
66337;SHT30;53139;45.576;5.304;2023-07-28T18:42:17;27.65;55.48
66337;SHT30;53139;45.576;5.304;2023-07-28T18:45:30;27.68;54.83
66337;SHT30;53139;45.576;5.304;2023-07-28T18:48:44;27.55;55.52
66337;SHT30;53139;45.576;5.304;2023-07-28T18:51:54;27.27;56.03
66337;SHT30;53139;45.576;5.304;2023-07-28T18:55:04;27.29;55.40
66337;SHT30;53139;45.576;5.304;2023-07-28T18:58:05;27.20;56.39
66337;SHT30;53139;45.576;5.304;2023-07-28T19:01:05;27.17;56.34
66337;SHT30;53139;45.576;5.304;2023-07-28T19:04:06;27.26;55.81
66337;SHT30;53139;45.576;5.304;2023-07-28T19:07:06;27.16;56.53
66337;SHT30;53139;45.576;5.304;2023-07-28T19:10:16;26.75;57.77
66337;SHT30;53139;45.576;5.304;2023-07-28T19:13:17;26.55;58.03